Saint Petersburg, FL (33703)

5:34 AM EDT on September 21, 2014 (GMT -0400)
NorthEast, KI4UIP | Change Station
CLOSE
Current Station
Personal Weather Station
Location: St Petersburg, FL
Elevation: 21 ft
Nearby Weather Stations

Elev 21 ft 27.81 °N, 82.64 °W | Updated 9 seconds ago

Scattered Clouds
Scattered Clouds
73.2 °F
Feels Like 70 °F
N
0.0
Wind Variable Wind from NW
Gusts 0.0 mph

Today
High -- | Low -- °F
--% Chance of Precip.
Yesterday
High -- | Low -- °F
Precip. -- in
7:18 AM 7:28 PM
Waning Crescent, 7% visible
Pressure 29.93 in
Visibility 10.0 miles
Clouds Scattered Clouds 1100 ft
Heat Index 70 °F
Dew Point 71 °F
Humidity 93%
Rainfall 0.00 in
Snow Depth Not available.
UV 0 out of 12
Pollen 4.20 out of 12
Air Quality Not available.
Flu Activity Not available.
SPECI KSPG 210900Z AUTO 08010KT 10SM SCT011 24/22 A2993 RMK AO2 T02390222

More Conditions Fewer Conditions

Pressure 29.93 in
Visibility 10.0 miles
Clouds Scattered Clouds 1100 ft
Heat Index 70 °F
Dew Point 71 °F
Humidity 93%
Rainfall 0.00 in
Snow Depth Not available.
UV 0 out of 12
Pollen 4.20 out of 12
Air Quality Not available.
Flu Activity Not available.
SPECI KSPG 210900Z AUTO 08010KT 10SM SCT011 24/22 A2993 RMK AO2 T02390222

More Conditions Fewer Conditions

10-Day Weather Forecast

Almanac

Astronomy

Sep. 21, 2014 Rise Set
Actual Time 7:18 AM EDT 7:28 PM EDT
Civil Twilight 6:55 AM EDT 7:51 PM EDT
Nautical Twilight 6:27 AM EDT 8:18 PM EDT
Astronomical Twilight 6:00 AM EDT 8:46 PM EDT
Moon 5:01 AM EDT 5:56 PM EDT
Length of Visible Light 12h 56m
Length of Day
12h 09m
Tomorrow will be 1m 39s shorter.
Waning Crescent, 7% of the Moon is Illuminated
Today
Waning Crescent
Sep 24
New
Oct 1
First Quarter
Oct 8
Full
Oct 15
Last Quarter

Today's Extremes

State Highs State Lows

Community

WunderPhotos

Upload Photos

1,755,106 photos uploaded!

Nearby

Air Quality

  Air Quality AQ Index Pollutant
Sunday Good
PM2.5
Sunday Good
OZONE

Snow Depth

Station Depth Elevation
No new snow has been reported.

Earthquake Activity

City Distance Mag. Time & Date
No recent earthquake activity has been reported nearby.
Minimum magnitude displayed is 2.5.

Coastal Water Temperatures

Place Temperature
St Petersburg, FL 84.9 °F
Old Port Tampa, FL 82.9 °F

Nearby Weather Stations